Time,TemperatureF,DewpointF,PressureIn,WindDirection,WindDirectionDegrees,WindSpeedMPH,WindSpeedGustMPH,Humidity,HourlyPrecipIn,Conditions,Clouds,dailyrainin,SoftwareType,DateUTC
2013-08-29 00:01:00,74.0,68.5,29.78,North,-999,-999.0,0.0,83,0.00,,---,0.00,VWS V14.01,2013-08-29 04:01:00,
2013-08-29 00:02:00,73.8,68.3,29.78,North,-999,-999.0,0.0,83,0.00,,---,0.00,VWS V14.01,2013-08-29 04:02:00,
2013-08-29 00:03:00,73.8,68.3,29.77,North,-999,-999.0,0.0,83,0.00,,---,0.00,VWS V14.01,2013-08-29 04:03:00,
2013-08-29 00:05:00,73.8,68.3,29.77,North,-999,-999.0,0.0,83,0.00,,---,0.00,VWS V14.01,2013-08-29 04:05:00,
2013-08-29 00:06:00,73.8,68.3,29.77,North,-999,-999.0,0.0,83,0.00,,---,0.00,VWS V14.01,2013-08-29 04:06:00,
2013-08-29 00:09:00,73.8,68.7,29.77,North,-999,-999.0,0.0,84,0.00,,---,0.00,VWS V14.01,2013-08-29 04:09:00,
2013-08-29 00:15:00,73.6,68.5,29.77,North,-999,-999.0,0.0,84,0.00,,---,0.00,VWS V14.01,2013-08-29 04:15:00,
2013-08-29 00:20:00,73.6,68.5,29.77,North,-999,-999.0,0.0,84,0.00,,---,0.00,VWS V14.01,2013-08-29 04:20:00,
2013-08-29 00:25:00,73.4,68.3,29.77,North,-999,-999.0,0.0,84,0.00,,---,0.00,VWS V14.01,2013-08-29 04:25:00,
2013-08-29 00:30:00,73.3,68.2,29.77,North,-999,-999.0,0.0,84,0.00,,---,0.00,VWS V14.01,2013-08-29 04:30:00,
2013-08-29 00:35:00,73.1,68.3,29.77,North,-999,-999.0,0.0,85,0.00,,---,0.00,VWS V14.01,2013-08-29 04:35:00,
2013-08-29 00:40:00,72.9,68.1,29.77,North,-999,-999.0,0.0,85,0.00,,---,0.00,VWS V14.01,2013-08-29 04:40:00,
2013-08-29 00:45:00,72.9,67.8,29.77,North,-999,-999.0,0.0,84,0.00,,---,0.00,VWS V14.01,2013-08-29 04:45:00,
2013-08-29 00:50:00,72.9,67.8,29.77,North,-999,-999.0,0.0,84,0.00,,---,0.00,VWS V14.01,2013-08-29 04:50:00,
2013-08-29 00:55:00,72.7,67.6,29.77,North,-999,-999.0,0.0,84,0.00,,---,0.00,VWS V14.01,2013-08-29 04:55:00,
2013-08-29 01:01:00,72.7,67.6,29.76,North,-999,-999.0,0.0,84,0.00,,---,0.00,VWS V14.01,2013-08-29 05:01:00,
2013-08-29 01:06:00,72.7,67.6,29.76,North,-999,-999.0,0.0,84,0.00,,---,0.00,VWS V14.01,2013-08-29 05:06:00,
2013-08-29 01:11:00,72.5,67.4,29.76,North,-999,-999.0,0.0,84,0.00,,---,0.00,VWS V14.01,2013-08-29 05:11:00,
2013-08-29 01:16:00,72.5,67.4,29.76,North,-999,-999.0,0.0,84,0.00,,---,0.00,VWS V14.01,2013-08-29 05:16:00,
2013-08-29 01:21:00,72.4,67.6,29.76,North,-999,-999.0,0.0,85,0.00,,---,0.00,VWS V14.01,2013-08-29 05:21:00,
2013-08-29 01:26:00,72.0,67.2,29.75,North,-999,-999.0,0.0,85,0.00,,---,0.00,VWS V14.01,2013-08-29 05:26:00,
2013-08-29 01:31:00,72.0,67.2,29.75,North,-999,-999.0,0.0,85,0.00,,---,0.00,VWS V14.01,2013-08-29 05:31:00,
2013-08-29 01:36:00,72.0,67.2,29.76,North,-999,-999.0,0.0,85,0.00,,---,0.00,VWS V14.01,2013-08-29 05:36:00,
2013-08-29 01:41:00,72.0,67.2,29.76,North,-999,-999.0,0.0,85,0.00,,---,0.00,VWS V14.01,2013-08-29 05:41:00,
2013-08-29 01:46:00,71.8,67.1,29.75,North,-999,-999.0,0.0,85,0.00,,---,0.00,VWS V14.01,2013-08-29 05:46:00,
2013-08-29 01:51:00,71.8,67.1,29.75,North,-999,-999.0,0.0,85,0.00,,---,0.00,VWS V14.01,2013-08-29 05:51:00,
2013-08-29 01:56:00,71.8,67.1,29.75,North,-999,-999.0,0.0,85,0.00,,---,0.00,VWS V14.01,2013-08-29 05:56:00,
2013-08-29 02:02:00,71.6,66.9,29.75,North,-999,-999.0,0.0,85,0.00,,---,0.00,VWS V14.01,2013-08-29 06:02:00,
2013-08-29 02:07:00,71.6,66.9,29.75,North,-999,-999.0,0.0,85,0.00,,---,0.00,VWS V14.01,2013-08-29 06:07:00,
2013-08-29 02:12:00,71.6,66.9,29.75,North,-999,-999.0,0.0,85,0.00,,---,0.00,VWS V14.01,2013-08-29 06:12:00,
2013-08-29 02:17:00,71.5,66.8,29.75,North,-999,-999.0,0.0,85,0.00,,---,0.00,VWS V14.01,2013-08-29 06:17:00,
2013-08-29 02:22:00,71.5,67.1,29.75,North,-999,-999.0,0.0,86,0.00,,---,0.00,VWS V14.01,2013-08-29 06:22:00,
2013-08-29 02:27:00,71.5,67.1,29.75,North,-999,-999.0,0.0,86,0.00,,---,0.00,VWS V14.01,2013-08-29 06:27:00,
2013-08-29 02:32:00,71.3,66.9,29.75,North,-999,-999.0,0.0,86,0.00,,---,0.00,VWS V14.01,2013-08-29 06:32:00,
2013-08-29 02:37:00,71.3,66.9,29.76,North,-999,-999.0,0.0,86,0.00,,---,0.00,VWS V14.01,2013-08-29 06:37:00,
2013-08-29 02:42:00,71.3,66.9,29.76,North,-999,-999.0,0.0,86,0.00,,---,0.00,VWS V14.01,2013-08-29 06:42:00,
2013-08-29 02:47:00,71.1,66.7,29.75,North,-999,-999.0,0.0,86,0.00,,---,0.00,VWS V14.01,2013-08-29 06:47:00,
2013-08-29 02:52:00,71.1,66.7,29.76,North,-999,-999.0,0.0,86,0.00,,---,0.00,VWS V14.01,2013-08-29 06:52:00,
2013-08-29 02:57:00,70.9,66.5,29.76,North,-999,-999.0,0.0,86,0.00,,---,0.00,VWS V14.01,2013-08-29 06:57:00,
2013-08-29 03:03:00,70.9,66.5,29.76,North,-999,-999.0,0.0,86,0.00,,---,0.00,VWS V14.01,2013-08-29 07:03:00,
2013-08-29 03:08:00,70.7,66.3,29.76,North,-999,-999.0,0.0,86,0.00,,---,0.00,VWS V14.01,2013-08-29 07:08:00,
2013-08-29 03:13:00,70.6,66.6,29.75,North,-999,-999.0,0.0,87,0.00,,---,0.00,VWS V14.01,2013-08-29 07:13:00,
2013-08-29 03:18:00,70.6,66.6,29.75,North,-999,-999.0,0.0,87,0.00,,---,0.00,VWS V14.01,2013-08-29 07:18:00,
2013-08-29 03:23:00,70.4,66.3,29.75,North,-999,-999.0,0.0,87,0.00,,---,0.00,VWS V14.01,2013-08-29 07:23:00,
2013-08-29 03:28:00,70.4,66.3,29.75,North,-999,-999.0,0.0,87,0.00,,---,0.00,VWS V14.01,2013-08-29 07:28:00,
2013-08-29 03:33:00,70.2,66.5,29.75,North,-999,-999.0,0.0,88,0.00,,---,0.00,VWS V14.01,2013-08-29 07:33:00,
2013-08-29 03:38:00,70.2,66.5,29.75,North,-999,-999.0,0.0,88,0.00,,---,0.00,VWS V14.01,2013-08-29 07:38:00,
2013-08-29 03:43:00,70.2,66.5,29.75,North,-999,-999.0,0.0,88,0.00,,---,0.00,VWS V14.01,2013-08-29 07:43:00,
2013-08-29 03:48:00,70.2,66.5,29.75,North,-999,-999.0,0.0,88,0.00,,---,0.00,VWS V14.01,2013-08-29 07:48:00,
2013-08-29 03:53:00,70.2,66.5,29.75,North,-999,-999.0,0.0,88,0.00,,---,0.00,VWS V14.01,2013-08-29 07:53:00,
2013-08-29 03:58:00,70.2,66.5,29.75,North,-999,-999.0,0.0,88,0.00,,---,0.00,VWS V14.01,2013-08-29 07:58:00,
2013-08-29 04:04:00,70.2,66.5,29.75,North,-999,-999.0,0.0,88,0.00,,---,0.00,VWS V14.01,2013-08-29 08:04:00,
2013-08-29 04:09:00,70.2,66.5,29.75,North,-999,-999.0,0.0,88,0.00,,---,0.00,VWS V14.01,2013-08-29 08:09:00,
2013-08-29 04:14:00,70.0,66.3,29.75,North,-999,-999.0,0.0,88,0.00,,---,0.00,VWS V14.01,2013-08-29 08:14:00,
2013-08-29 04:19:00,70.0,66.3,29.74,North,-999,-999.0,0.0,88,0.00,,---,0.00,VWS V14.01,2013-08-29 08:19:00,
2013-08-29 04:24:00,70.0,66.3,29.74,North,-999,-999.0,0.0,88,0.00,,---,0.00,VWS V14.01,2013-08-29 08:24:00,
2013-08-29 04:29:00,70.2,66.5,29.74,North,-999,-999.0,0.0,88,0.00,,---,0.00,VWS V14.01,2013-08-29 08:29:00,
2013-08-29 04:34:00,70.2,66.5,29.74,North,-999,-999.0,0.0,88,0.00,,---,0.00,VWS V14.01,2013-08-29 08:34:00,
2013-08-29 04:39:00,70.2,66.5,29.75,North,-999,-999.0,0.0,88,0.00,,---,0.00,VWS V14.01,2013-08-29 08:39:00,
2013-08-29 04:44:00,70.2,66.5,29.74,North,-999,-999.0,0.0,88,0.00,,---,0.00,VWS V14.01,2013-08-29 08:44:00,
2013-08-29 04:49:00,70.0,66.3,29.75,North,-999,-999.0,0.0,88,0.00,,---,0.00,VWS V14.01,2013-08-29 08:49:00,
2013-08-29 04:54:00,70.0,66.3,29.74,North,-999,-999.0,0.0,88,0.00,,---,0.00,VWS V14.01,2013-08-29 08:54:00,
2013-08-29 04:59:00,69.8,66.1,29.75,North,-999,-999.0,0.0,88,0.00,,---,0.00,VWS V14.01,2013-08-29 08:59:00,
2013-08-29 05:05:00,69.8,66.1,29.74,North,-999,-999.0,0.0,88,0.00,,---,0.00,VWS V14.01,2013-08-29 09:05:00,
2013-08-29 05:10:00,69.8,66.1,29.75,North,-999,-999.0,0.0,88,0.00,,---,0.00,VWS V14.01,2013-08-29 09:10:00,
2013-08-29 05:15:00,69.8,66.1,29.75,North,-999,-999.0,0.0,88,0.00,,---,0.00,VWS V14.01,2013-08-29 09:15:00,
2013-08-29 05:20:00,69.8,66.1,29.75,North,-999,-999.0,0.0,88,0.00,,---,0.00,VWS V14.01,2013-08-29 09:20:00,
2013-08-29 05:25:00,69.8,66.1,29.75,North,-999,-999.0,0.0,88,0.00,,---,0.00,VWS V14.01,2013-08-29 09:25:00,
2013-08-29 05:30:00,69.8,66.1,29.75,North,-999,-999.0,0.0,88,0.00,,---,0.00,VWS V14.01,2013-08-29 09:30:00,
2013-08-29 05:35:00,69.8,66.1,29.75,North,-999,-999.0,0.0,88,0.00,,---,0.00,VWS V14.01,2013-08-29 09:35:00,
2013-08-29 05:40:00,69.8,66.1,29.75,North,-999,-999.0,0.0,88,0.00,,---,0.00,VWS V14.01,2013-08-29 09:40:00,
2013-08-29 05:45:00,69.7,66.0,29.75,North,-999,-999.0,0.0,88,0.00,,---,0.00,VWS V14.01,2013-08-29 09:45:00,
2013-08-29 05:50:00,69.7,66.0,29.74,North,-999,-999.0,0.0,88,0.00,,---,0.00,VWS V14.01,2013-08-29 09:50:00,
2013-08-29 05:55:00,69.7,66.0,29.75,North,-999,-999.0,0.0,88,0.00,,---,0.00,VWS V14.01,2013-08-29 09:55:00,
2013-08-29 06:00:00,69.7,66.0,29.75,North,-999,-999.0,0.0,88,0.00,,---,0.00,VWS V14.01,2013-08-29 10:00:00,
2013-08-29 06:06:00,69.7,66.0,29.75,North,-999,-999.0,0.0,88,0.00,,---,0.00,VWS V14.01,2013-08-29 10:06:00,
2013-08-29 06:11:00,69.5,65.8,29.74,North,-999,-999.0,0.0,88,0.00,,---,0.00,VWS V14.01,2013-08-29 10:11:00,
2013-08-29 06:16:00,69.5,65.8,29.74,North,-999,-999.0,0.0,88,0.00,,---,0.00,VWS V14.01,2013-08-29 10:16:00,
2013-08-29 06:21:00,69.5,66.1,29.75,North,-999,-999.0,0.0,89,0.00,,---,0.00,VWS V14.01,2013-08-29 10:21:00,
2013-08-29 06:26:00,69.5,66.1,29.74,North,-999,-999.0,0.0,89,0.00,,---,0.00,VWS V14.01,2013-08-29 10:26:00,
2013-08-29 06:31:00,69.5,66.1,29.75,North,-999,-999.0,0.0,89,0.00,,---,0.00,VWS V14.01,2013-08-29 10:31:00,
2013-08-29 06:36:00,69.3,65.9,29.75,North,-999,-999.0,0.0,89,0.00,,---,0.00,VWS V14.01,2013-08-29 10:36:00,
2013-08-29 06:41:00,69.3,65.9,29.75,North,-999,-999.0,0.0,89,0.00,,---,0.00,VWS V14.01,2013-08-29 10:41:00,
2013-08-29 06:46:00,69.3,65.9,29.75,North,-999,-999.0,0.0,89,0.00,,---,0.00,VWS V14.01,2013-08-29 10:46:00,
2013-08-29 06:51:00,69.1,65.7,29.75,North,-999,-999.0,0.0,89,0.00,,---,0.00,VWS V14.01,2013-08-29 10:51:00,
2013-08-29 06:56:00,69.1,65.7,29.75,North,-999,-999.0,0.0,89,0.00,,---,0.00,VWS V14.01,2013-08-29 10:56:00,
2013-08-29 07:02:00,69.3,65.9,29.76,North,-999,-999.0,0.0,89,0.00,,---,0.00,VWS V14.01,2013-08-29 11:02:00,
2013-08-29 07:07:00,69.3,65.9,29.76,North,-999,-999.0,0.0,89,0.00,,---,0.00,VWS V14.01,2013-08-29 11:07:00,
2013-08-29 07:12:00,69.5,66.1,29.76,North,-999,-999.0,0.0,89,0.00,,---,0.00,VWS V14.01,2013-08-29 11:12:00,
2013-08-29 07:17:00,69.5,66.4,29.76,North,-999,-999.0,0.0,90,0.00,,---,0.00,VWS V14.01,2013-08-29 11:17:00,
2013-08-29 07:22:00,69.7,66.6,29.76,North,-999,-999.0,0.0,90,0.00,,---,0.00,VWS V14.01,2013-08-29 11:22:00,
2013-08-29 07:27:00,69.8,66.7,29.76,North,-999,-999.0,0.0,90,0.00,,---,0.00,VWS V14.01,2013-08-29 11:27:00,
2013-08-29 07:32:00,69.8,66.7,29.76,North,-999,-999.0,0.0,90,0.00,,---,0.00,VWS V14.01,2013-08-29 11:32:00,
2013-08-29 07:37:00,70.0,66.9,29.77,North,-999,-999.0,0.0,90,0.00,,---,0.00,VWS V14.01,2013-08-29 11:37:00,
2013-08-29 07:42:00,70.0,66.9,29.77,North,-999,-999.0,0.0,90,0.00,,---,0.00,VWS V14.01,2013-08-29 11:42:00,
2013-08-29 07:47:00,70.2,67.1,29.77,North,-999,-999.0,0.0,90,0.00,,---,0.00,VWS V14.01,2013-08-29 11:47:00,
2013-08-29 07:52:00,70.2,67.1,29.77,North,-999,-999.0,0.0,90,0.00,,---,0.00,VWS V14.01,2013-08-29 11:52:00,
2013-08-29 07:57:00,70.4,67.3,29.77,North,-999,-999.0,0.0,90,0.00,,---,0.00,VWS V14.01,2013-08-29 11:57:00,
2013-08-29 08:03:00,70.7,67.6,29.77,North,-999,-999.0,0.0,90,0.00,,---,0.00,VWS V14.01,2013-08-29 12:03:00,
2013-08-29 08:08:00,70.9,67.5,29.77,North,-999,-999.0,0.0,89,0.00,,---,0.00,VWS V14.01,2013-08-29 12:08:00,
2013-08-29 08:13:00,71.3,67.9,29.77,North,-999,-999.0,0.0,89,0.00,,---,0.00,VWS V14.01,2013-08-29 12:13:00,
2013-08-29 08:18:00,71.5,68.1,29.77,North,-999,-999.0,0.0,89,0.00,,---,0.00,VWS V14.01,2013-08-29 12:18:00,
2013-08-29 08:23:00,71.6,68.2,29.77,North,-999,-999.0,0.0,89,0.00,,---,0.00,VWS V14.01,2013-08-29 12:23:00,
2013-08-29 08:28:00,72.2,68.8,29.77,North,-999,-999.0,0.0,89,0.00,,---,0.00,VWS V14.01,2013-08-29 12:28:00,
2013-08-29 08:33:00,72.7,69.3,29.77,North,-999,-999.0,0.0,89,0.00,,---,0.00,VWS V14.01,2013-08-29 12:33:00,
2013-08-29 08:38:00,73.3,69.9,29.78,North,-999,-999.0,0.0,89,0.00,,---,0.00,VWS V14.01,2013-08-29 12:38:00,
2013-08-29 08:43:00,74.0,70.6,29.78,North,-999,-999.0,0.0,89,0.00,,---,0.00,VWS V14.01,2013-08-29 12:43:00,
2013-08-29 08:48:00,74.5,70.7,29.78,North,-999,-999.0,0.0,88,0.00,,---,0.00,VWS V14.01,2013-08-29 12:48:00,
2013-08-29 08:53:00,75.1,71.3,29.78,North,-999,-999.0,0.0,88,0.00,,---,0.00,VWS V14.01,2013-08-29 12:53:00,
2013-08-29 08:58:00,75.6,71.5,29.78,North,-999,-999.0,0.0,87,0.00,,---,0.00,VWS V14.01,2013-08-29 12:58:00,
2013-08-29 09:04:00,76.0,71.5,29.78,North,-999,-999.0,0.0,86,0.00,,---,0.00,VWS V14.01,2013-08-29 13:04:00,
2013-08-29 09:09:00,76.5,71.7,29.78,North,-999,-999.0,0.0,85,0.00,,---,0.00,VWS V14.01,2013-08-29 13:09:00,
2013-08-29 09:14:00,76.9,72.1,29.78,North,-999,-999.0,0.0,85,0.00,,---,0.00,VWS V14.01,2013-08-29 13:14:00,
2013-08-29 09:19:00,77.2,72.0,29.78,North,-999,-999.0,0.0,84,0.00,,---,0.00,VWS V14.01,2013-08-29 13:19:00,
2013-08-29 09:24:00,77.4,72.2,29.78,North,-999,-999.0,0.0,84,0.00,,---,0.00,VWS V14.01,2013-08-29 13:24:00,
2013-08-29 09:29:00,78.1,72.5,29.78,North,-999,-999.0,0.0,83,0.00,,---,0.00,VWS V14.01,2013-08-29 13:29:00,
2013-08-29 09:34:00,78.7,72.4,29.78,North,-999,-999.0,0.0,81,0.00,,---,0.00,VWS V14.01,2013-08-29 13:34:00,
2013-08-29 09:39:00,79.2,72.9,29.78,North,-999,-999.0,0.0,81,0.00,,---,0.00,VWS V14.01,2013-08-29 13:39:00,
2013-08-29 09:44:00,79.7,73.0,29.78,North,-999,-999.0,0.0,80,0.00,,---,0.00,VWS V14.01,2013-08-29 13:44:00,
2013-08-29 09:49:00,80.3,73.2,29.78,North,-999,-999.0,0.0,79,0.00,,---,0.00,VWS V14.01,2013-08-29 13:49:00,
2013-08-29 09:54:00,81.0,73.1,29.78,North,-999,-999.0,0.0,77,0.00,,---,0.00,VWS V14.01,2013-08-29 13:54:00,
2013-08-29 09:59:00,81.9,74.0,29.78,North,-999,-999.0,0.0,77,0.00,,---,0.00,VWS V14.01,2013-08-29 13:59:00,
2013-08-29 10:05:00,82.6,73.9,29.78,North,-999,-999.0,0.0,75,0.00,,---,0.00,VWS V14.01,2013-08-29 14:05:00,
2013-08-29 10:10:00,82.8,74.1,29.78,North,-999,-999.0,0.0,75,0.00,,---,0.00,VWS V14.01,2013-08-29 14:10:00,
2013-08-29 10:15:00,83.0,74.3,29.78,North,-999,-999.0,0.0,75,0.00,,---,0.00,VWS V14.01,2013-08-29 14:15:00,
2013-08-29 10:20:00,83.3,73.8,29.79,North,-999,-999.0,0.0,73,0.00,,---,0.00,VWS V14.01,2013-08-29 14:20:00,
2013-08-29 10:25:00,83.7,73.7,29.78,North,-999,-999.0,0.0,72,0.00,,---,0.00,VWS V14.01,2013-08-29 14:25:00,
2013-08-29 10:30:00,84.1,74.5,29.78,North,-999,-999.0,0.0,73,0.00,,---,0.00,VWS V14.01,2013-08-29 14:30:00,
2013-08-29 10:32:00,84.2,74.6,29.78,North,-999,-999.0,0.0,73,0.00,,---,0.00,VWS V14.01,2013-08-29 14:32:00,
2013-08-29 10:35:00,84.2,74.6,29.78,North,-999,-999.0,0.0,73,0.00,,---,0.00,VWS V14.01,2013-08-29 14:35:00,
2013-08-29 10:41:00,84.2,74.6,29.78,North,-999,-999.0,0.0,73,0.00,,---,0.00,VWS V14.01,2013-08-29 14:41:00,
2013-08-29 11:00:00,93.2,77.3,29.79,North,-999,-999.0,0.0,60,0.00,,---,0.00,VWS V14.01,2013-08-29 15:00:00,
2013-08-29 11:05:00,94.5,76.9,29.78,North,-999,-999.0,0.0,57,0.00,,---,0.00,VWS V14.01,2013-08-29 15:05:00,
2013-08-29 11:10:00,95.4,76.7,29.78,North,-999,-999.0,0.0,55,0.00,,---,0.00,VWS V14.01,2013-08-29 15:10:00,
2013-08-29 11:15:00,96.5,77.1,29.78,North,-999,-999.0,0.0,54,0.00,,---,0.00,VWS V14.01,2013-08-29 15:15:00,
2013-08-29 11:20:00,97.6,77.6,29.78,North,-999,-999.0,0.0,53,0.00,,---,0.00,VWS V14.01,2013-08-29 15:20:00,
2013-08-29 11:25:00,98.3,75.9,29.78,North,-999,-999.0,0.0,49,0.00,,---,0.00,VWS V14.01,2013-08-29 15:25:00,
2013-08-29 11:30:00,98.5,75.4,29.78,North,-999,-999.0,0.0,48,0.00,,---,0.00,VWS V14.01,2013-08-29 15:30:00,
2013-08-29 11:35:00,98.5,76.1,29.78,North,-999,-999.0,0.0,49,0.00,,---,0.00,VWS V14.01,2013-08-29 15:35:00,
2013-08-29 11:40:00,99.0,75.9,29.78,North,-999,-999.0,0.0,48,0.00,,---,0.00,VWS V14.01,2013-08-29 15:40:00,
2013-08-29 11:43:00,99.2,75.4,29.78,North,-999,-999.0,0.0,47,0.00,,---,0.00,VWS V14.01,2013-08-29 15:43:00,
2013-08-29 11:45:00,99.2,75.4,29.78,North,-999,-999.0,0.0,47,0.00,,---,0.00,VWS V14.01,2013-08-29 15:45:00,
2013-08-29 11:51:00,99.2,75.4,29.78,North,-999,-999.0,0.0,47,0.00,,---,0.00,VWS V14.01,2013-08-29 15:51:00,
2013-08-29 12:00:00,102.2,75.5,29.77,North,-999,-999.0,0.0,43,0.00,,---,0.00,VWS V14.01,2013-08-29 16:00:00,
2013-08-29 12:05:00,102.2,75.5,29.77,North,-999,-999.0,0.0,43,0.00,,---,0.00,VWS V14.01,2013-08-29 16:05:00,
2013-08-29 13:00:00,105.1,74.4,29.76,North,-999,-999.0,0.0,38,0.00,,---,0.00,VWS V14.01,2013-08-29 17:00:00,
2013-08-29 13:06:00,105.1,74.4,29.76,North,-999,-999.0,0.0,38,0.00,,---,0.00,VWS V14.01,2013-08-29 17:06:00,
2013-08-29 14:00:00,104.0,74.2,29.75,North,-999,-999.0,0.0,39,0.00,,---,0.48,VWS V14.01,2013-08-29 18:00:00,
2013-08-29 14:06:00,104.0,74.2,29.75,North,-999,-999.0,0.0,39,0.00,,---,0.00,VWS V14.01,2013-08-29 18:06:00,
2013-08-29 15:00:00,108.0,74.4,29.73,North,-999,-999.0,0.0,35,0.00,,---,0.00,VWS V14.01,2013-08-29 19:00:00,
2013-08-29 15:06:00,108.0,74.4,29.73,North,-999,-999.0,0.0,35,0.00,,---,0.00,VWS V14.01,2013-08-29 19:06:00,
2013-08-29 17:00:00,101.5,71.9,29.72,North,-999,-999.0,0.0,39,0.00,,---,0.00,VWS V14.01,2013-08-29 21:00:00,
2013-08-29 17:05:00,102.8,73.1,29.72,North,-999,-999.0,0.0,39,0.00,,---,0.00,VWS V14.01,2013-08-29 21:05:00,
2013-08-29 17:10:00,103.7,73.9,29.71,North,-999,-999.0,0.0,39,0.00,,---,0.00,VWS V14.01,2013-08-29 21:10:00,
2013-08-29 17:16:00,101.9,73.1,29.71,North,-999,-999.0,0.0,40,0.00,,---,0.00,VWS V14.01,2013-08-29 21:16:00,
2013-08-29 17:21:00,99.4,72.3,29.71,North,-999,-999.0,0.0,42,0.00,,---,0.00,VWS V14.01,2013-08-29 21:21:00,
2013-08-29 17:26:00,97.4,72.5,29.71,North,-999,-999.0,0.0,45,0.00,,---,0.00,VWS V14.01,2013-08-29 21:26:00,
2013-08-29 17:31:00,95.9,73.1,29.72,North,-999,-999.0,0.0,48,0.00,,---,0.00,VWS V14.01,2013-08-29 21:31:00,
2013-08-29 17:36:00,94.5,73.0,29.71,North,-999,-999.0,0.0,50,0.00,,---,0.00,VWS V14.01,2013-08-29 21:36:00,
2013-08-29 17:41:00,93.2,73.0,29.71,North,-999,-999.0,0.0,52,0.00,,---,0.00,VWS V14.01,2013-08-29 21:41:00,
2013-08-29 17:46:00,92.5,72.9,29.71,North,-999,-999.0,0.0,53,0.00,,---,0.00,VWS V14.01,2013-08-29 21:46:00,
2013-08-29 17:52:00,91.8,72.8,29.71,North,-999,-999.0,0.0,54,0.00,,---,0.00,VWS V14.01,2013-08-29 21:52:00,
2013-08-29 17:57:00,91.1,72.7,29.71,North,-999,-999.0,0.0,55,0.00,,---,0.00,VWS V14.01,2013-08-29 21:57:00,
2013-08-29 18:02:00,90.7,73.4,29.71,North,-999,-999.0,0.0,57,0.00,,---,0.00,VWS V14.01,2013-08-29 22:02:00,
2013-08-29 18:08:00,90.9,74.1,29.71,North,-999,-999.0,0.0,58,0.00,,---,0.00,VWS V14.01,2013-08-29 22:08:00,
2013-08-29 18:13:00,92.9,76.5,29.71,North,-999,-999.0,0.0,59,0.00,,---,0.00,VWS V14.01,2013-08-29 22:13:00,
2013-08-29 18:18:00,93.4,75.4,29.71,North,-999,-999.0,0.0,56,0.00,,---,0.00,VWS V14.01,2013-08-29 22:18:00,
2013-08-29 18:23:00,93.1,75.1,29.71,North,-999,-999.0,0.0,56,0.00,,---,0.00,VWS V14.01,2013-08-29 22:23:00,
2013-08-29 18:28:00,92.9,74.9,29.71,North,-999,-999.0,0.0,56,0.00,,---,0.00,VWS V14.01,2013-08-29 22:28:00,
2013-08-29 18:33:00,91.8,74.4,29.71,North,-999,-999.0,0.0,57,0.00,,---,0.00,VWS V14.01,2013-08-29 22:33:00,
2013-08-29 18:38:00,90.2,73.9,29.71,North,-999,-999.0,0.0,59,0.00,,---,0.00,VWS V14.01,2013-08-29 22:38:00,
2013-08-29 18:43:00,89.3,74.1,29.71,North,-999,-999.0,0.0,61,0.00,,---,0.00,VWS V14.01,2013-08-29 22:43:00,
2013-08-29 18:48:00,88.2,74.0,29.71,North,-999,-999.0,0.0,63,0.00,,---,0.00,VWS V14.01,2013-08-29 22:48:00,
2013-08-29 18:53:00,87.7,74.0,29.71,North,-999,-999.0,0.0,64,0.00,,---,0.00,VWS V14.01,2013-08-29 22:53:00,
2013-08-29 18:58:00,87.7,74.5,29.71,North,-999,-999.0,0.0,65,0.00,,---,0.00,VWS V14.01,2013-08-29 22:58:00,
2013-08-29 19:04:00,88.7,75.4,29.71,North,-999,-999.0,0.0,65,0.00,,---,0.00,VWS V14.01,2013-08-29 23:04:00,
2013-08-29 19:09:00,89.5,76.2,29.71,North,-999,-999.0,0.0,65,0.00,,---,0.00,VWS V14.01,2013-08-29 23:09:00,
2013-08-29 19:14:00,89.8,76.0,29.71,North,-999,-999.0,0.0,64,0.00,,---,0.00,VWS V14.01,2013-08-29 23:14:00,
2013-08-29 19:19:00,89.6,75.8,29.71,North,-999,-999.0,0.0,64,0.00,,---,0.00,VWS V14.01,2013-08-29 23:19:00,
2013-08-29 19:24:00,89.3,75.5,29.72,North,-999,-999.0,0.0,64,0.00,,---,0.00,VWS V14.01,2013-08-29 23:24:00,
2013-08-29 19:29:00,88.7,75.4,29.72,North,-999,-999.0,0.0,65,0.00,,---,0.00,VWS V14.01,2013-08-29 23:29:00,
2013-08-29 19:35:00,87.5,74.8,29.72,North,-999,-999.0,0.0,66,0.00,,---,0.00,VWS V14.01,2013-08-29 23:35:00,
2013-08-29 19:40:00,86.6,74.3,29.72,North,-999,-999.0,0.0,67,0.00,,---,0.00,VWS V14.01,2013-08-29 23:40:00,
2013-08-29 19:45:00,86.0,74.2,29.73,North,-999,-999.0,0.0,68,0.00,,---,0.00,VWS V14.01,2013-08-29 23:45:00,
2013-08-29 19:50:00,85.7,74.4,29.73,North,-999,-999.0,0.0,69,0.00,,---,0.00,VWS V14.01,2013-08-29 23:50:00,
2013-08-29 19:55:00,85.0,74.1,29.73,North,-999,-999.0,0.0,70,0.00,,---,0.00,VWS V14.01,2013-08-29 23:55:00,
2013-08-29 20:01:00,84.2,73.8,29.73,North,-999,-999.0,0.0,71,0.00,,---,0.48,VWS V14.01,2013-08-30 00:01:00,
2013-08-29 20:06:00,83.5,73.5,29.74,North,-999,-999.0,0.0,72,0.00,,---,0.00,VWS V14.01,2013-08-30 00:06:00,
2013-08-29 20:11:00,83.3,73.3,29.74,North,-999,-999.0,0.0,72,0.00,,---,0.00,VWS V14.01,2013-08-30 00:11:00,
2013-08-29 20:16:00,82.6,72.7,29.74,North,-999,-999.0,0.0,72,0.00,,---,0.00,VWS V14.01,2013-08-30 00:16:00,
2013-08-29 20:21:00,82.4,72.5,29.74,North,-999,-999.0,0.0,72,0.00,,---,0.00,VWS V14.01,2013-08-30 00:21:00,
2013-08-29 20:26:00,82.1,72.2,29.74,North,-999,-999.0,0.0,72,0.00,,---,0.00,VWS V14.01,2013-08-30 00:26:00,
2013-08-29 20:31:00,81.7,71.8,29.74,North,-999,-999.0,0.0,72,0.00,,---,0.00,VWS V14.01,2013-08-30 00:31:00,
2013-08-29 20:36:00,81.5,71.6,29.74,North,-999,-999.0,0.0,72,0.00,,---,0.00,VWS V14.01,2013-08-30 00:36:00,
2013-08-29 20:41:00,81.2,72.1,29.74,North,-999,-999.0,0.0,74,0.00,,---,0.00,VWS V14.01,2013-08-30 00:41:00,
2013-08-29 20:46:00,80.5,71.8,29.74,North,-999,-999.0,0.0,75,0.00,,---,0.00,VWS V14.01,2013-08-30 00:46:00,
2013-08-29 20:51:00,80.1,71.5,29.74,North,-999,-999.0,0.0,75,0.00,,---,0.00,VWS V14.01,2013-08-30 00:51:00,
2013-08-29 20:56:00,79.7,71.1,29.74,North,-999,-999.0,0.0,75,0.00,,---,0.00,VWS V14.01,2013-08-30 00:56:00,
2013-08-29 21:02:00,79.6,71.4,29.75,North,-999,-999.0,0.0,76,0.00,,---,0.00,VWS V14.01,2013-08-30 01:02:00,
2013-08-29 21:07:00,79.4,71.6,29.75,North,-999,-999.0,0.0,77,0.00,,---,0.00,VWS V14.01,2013-08-30 01:07:00,
2013-08-29 21:12:00,79.2,71.0,29.75,North,-999,-999.0,0.0,76,0.00,,---,0.00,VWS V14.01,2013-08-30 01:12:00,
2013-08-29 21:17:00,79.0,71.2,29.76,North,-999,-999.0,0.0,77,0.00,,---,0.00,VWS V14.01,2013-08-30 01:17:00,
2013-08-29 21:22:00,78.8,71.0,29.76,North,-999,-999.0,0.0,77,0.00,,---,0.00,VWS V14.01,2013-08-30 01:22:00,
2013-08-29 21:27:00,78.8,71.0,29.76,North,-999,-999.0,0.0,77,0.00,,---,0.00,VWS V14.01,2013-08-30 01:27:00,
2013-08-29 21:32:00,78.3,70.9,29.76,North,-999,-999.0,0.0,78,0.00,,---,0.00,VWS V14.01,2013-08-30 01:32:00,
2013-08-29 21:37:00,78.1,70.7,29.76,North,-999,-999.0,0.0,78,0.00,,---,0.00,VWS V14.01,2013-08-30 01:37:00,
2013-08-29 21:42:00,77.9,70.9,29.76,North,-999,-999.0,0.0,79,0.00,,---,0.00,VWS V14.01,2013-08-30 01:42:00,
2013-08-29 21:47:00,77.8,70.8,29.76,North,-999,-999.0,0.0,79,0.00,,---,0.00,VWS V14.01,2013-08-30 01:47:00,
2013-08-29 21:52:00,77.6,70.6,29.76,North,-999,-999.0,0.0,79,0.00,,---,0.00,VWS V14.01,2013-08-30 01:52:00,
2013-08-29 21:57:00,77.4,70.4,29.76,North,-999,-999.0,0.0,79,0.00,,---,0.00,VWS V14.01,2013-08-30 01:57:00,
2013-08-29 22:03:00,77.4,70.8,29.76,North,-999,-999.0,0.0,80,0.00,,---,0.00,VWS V14.01,2013-08-30 02:03:00,
2013-08-29 22:08:00,77.2,70.6,29.75,North,-999,-999.0,0.0,80,0.00,,---,0.00,VWS V14.01,2013-08-30 02:08:00,
2013-08-29 22:13:00,77.2,70.6,29.76,North,-999,-999.0,0.0,80,0.00,,---,0.00,VWS V14.01,2013-08-30 02:13:00,
2013-08-29 22:18:00,77.0,70.4,29.76,North,-999,-999.0,0.0,80,0.00,,---,0.00,VWS V14.01,2013-08-30 02:18:00,
2013-08-29 22:23:00,76.9,70.6,29.76,North,-999,-999.0,0.0,81,0.00,,---,0.00,VWS V14.01,2013-08-30 02:23:00,
2013-08-29 22:28:00,76.9,70.6,29.77,North,-999,-999.0,0.0,81,0.00,,---,0.00,VWS V14.01,2013-08-30 02:28:00,
2013-08-29 22:33:00,76.9,70.6,29.77,North,-999,-999.0,0.0,81,0.00,,---,0.00,VWS V14.01,2013-08-30 02:33:00,
2013-08-29 22:38:00,77.0,70.7,29.77,North,-999,-999.0,0.0,81,0.00,,---,0.00,VWS V14.01,2013-08-30 02:38:00,
2013-08-29 22:43:00,77.0,70.7,29.77,North,-999,-999.0,0.0,81,0.00,,---,0.00,VWS V14.01,2013-08-30 02:43:00,
2013-08-29 22:48:00,77.0,71.1,29.77,North,-999,-999.0,0.0,82,0.00,,---,0.00,VWS V14.01,2013-08-30 02:48:00,
2013-08-29 22:53:00,77.0,70.7,29.77,North,-999,-999.0,0.0,81,0.00,,---,0.00,VWS V14.01,2013-08-30 02:53:00,
2013-08-29 22:58:00,77.0,70.7,29.77,North,-999,-999.0,0.0,81,0.00,,---,0.00,VWS V14.01,2013-08-30 02:58:00,
2013-08-29 23:04:00,76.9,71.0,29.78,North,-999,-999.0,0.0,82,0.00,,---,0.00,VWS V14.01,2013-08-30 03:04:00,
2013-08-29 23:09:00,76.9,71.0,29.77,North,-999,-999.0,0.0,82,0.00,,---,0.00,VWS V14.01,2013-08-30 03:09:00,
2013-08-29 23:14:00,77.0,71.1,29.77,North,-999,-999.0,0.0,82,0.00,,---,0.00,VWS V14.01,2013-08-30 03:14:00,
2013-08-29 23:19:00,77.0,71.1,29.78,North,-999,-999.0,0.0,82,0.00,,---,0.00,VWS V14.01,2013-08-30 03:19:00,
2013-08-29 23:24:00,77.0,71.4,29.78,North,-999,-999.0,0.0,83,0.01,,---,0.01,VWS V14.01,2013-08-30 03:24:00,
2013-08-29 23:29:00,76.7,71.5,29.78,North,-999,-999.0,0.0,84,0.04,,---,0.04,VWS V14.01,2013-08-30 03:29:00,
2013-08-29 23:34:00,76.5,71.3,29.79,North,-999,-999.0,0.0,84,0.06,,---,0.06,VWS V14.01,2013-08-30 03:34:00,
2013-08-29 23:39:00,76.1,71.3,29.79,North,-999,-999.0,0.0,85,0.07,,---,0.07,VWS V14.01,2013-08-30 03:39:00,
2013-08-29 23:44:00,76.1,71.3,29.79,North,-999,-999.0,0.0,85,0.09,,---,0.09,VWS V14.01,2013-08-30 03:44:00,
2013-08-29 23:49:00,75.8,71.0,29.79,North,-999,-999.0,0.0,85,0.14,,---,0.14,VWS V14.01,2013-08-30 03:49:00,
2013-08-29 23:54:00,75.2,70.4,29.79,North,-999,-999.0,0.0,85,0.28,,---,0.28,VWS V14.01,2013-08-30 03:54:00,
2013-08-29 23:59:00,74.9,70.1,29.79,North,-999,-999.0,0.0,85,0.38,,---,0.38,VWS V14.01,2013-08-30 03:59:00,